Time;durP1;ratioP1;P1;durP2;ratioP2;P2;SDS_P1;SDS_P2;PMS_P1;PMS_P2;Temp;Humidity;BMP_temperature;BMP_pressure;BME280_temperature;BME280_humidity;BME280_pressure;Samples;Min_cycle;Max_cycle;Signal;HPM_P1;HPM_P2
2022/06/14 00:00:54;;;;;;;10.70;3.55;;;;;;;15.05;61.07;102315.81;5020031;28;20049;-48
2022/06/14 00:03:44;;;;;;;9.25;3.17;;;;;;;15.08;60.74;102318.88;5030694;28;20107;-46
2022/06/14 00:06:33;;;;;;;10.70;3.10;;;;;;;15.08;60.70;102312.53;5014637;28;20046;-49
2022/06/14 00:09:20;;;;;;;11.02;3.20;;;;;;;15.08;61.03;102309.78;5026606;28;20041;-48
2022/06/14 00:12:08;;;;;;;11.75;3.38;;;;;;;15.07;60.93;102313.63;5034750;28;20423;-51
2022/06/14 00:14:58;;;;;;;10.80;3.72;;;;;;;15.01;61.05;102315.53;5031049;28;20059;-50
2022/06/14 00:17:45;;;;;;;11.95;3.30;;;;;;;14.95;61.43;102315.72;5034040;28;20046;-48
2022/06/14 00:20:33;;;;;;;9.82;3.10;;;;;;;14.91;61.64;102320.91;5024180;28;20046;-50
2022/06/14 00:23:22;;;;;;;12.18;3.47;;;;;;;14.84;62.21;102315.66;5019526;28;20045;-48
2022/06/14 00:26:04;;;;;;;9.68;3.38;;;;;;;14.84;62.02;102321.13;5032130;28;20466;-49
2022/06/14 00:28:52;;;;;;;13.32;3.42;;;;;;;14.79;62.33;102318.34;5026024;28;20046;-48
2022/06/14 00:31:40;;;;;;;11.93;3.70;;;;;;;14.76;62.35;102318.84;5033039;28;20053;-48
2022/06/14 00:34:28;;;;;;;11.65;3.90;;;;;;;14.71;62.67;102318.78;5032695;28;20049;-45
2022/06/14 00:37:19;;;;;;;10.63;3.40;;;;;;;14.65;62.85;102322.59;5025381;28;20061;-46
2022/06/14 00:40:09;;;;;;;12.80;3.90;;;;;;;14.59;63.19;102318.13;5031185;28;20416;-47
2022/06/14 00:42:57;;;;;;;9.55;3.70;;;;;;;14.52;63.40;102321.03;5028070;28;20064;-47
2022/06/14 00:45:45;;;;;;;10.68;3.40;;;;;;;14.53;63.78;102319.13;5034462;28;20049;-48
2022/06/14 00:48:33;;;;;;;15.32;3.60;;;;;;;14.57;63.62;102321.13;5021173;28;20068;-46
2022/06/14 00:51:25;;;;;;;13.52;3.78;;;;;;;14.60;63.58;102328.00;5025340;28;20054;-48
2022/06/14 00:54:21;;;;;;;12.98;3.55;;;;;;;14.59;63.65;102332.66;5019498;28;20072;-48
2022/06/14 00:57:13;;;;;;;12.00;4.32;;;;;;;14.56;63.77;102319.47;5022900;28;20046;-49
2022/06/14 01:00:11;;;;;;;13.38;3.13;;;;;;;14.56;63.70;102324.13;5025665;28;20042;-44
2022/06/14 01:03:03;;;;;;;14.90;3.45;;;;;;;14.47;64.09;102313.56;5014897;28;20515;-48
2022/06/14 01:06:06;;;;;;;12.65;3.50;;;;;;;14.41;64.60;102317.38;5027788;28;20092;-48
2022/06/14 01:09:11;;;;;;;10.32;3.17;;;;;;;14.36;64.90;102309.09;5007604;28;20508;-48
2022/06/14 01:12:06;;;;;;;10.10;3.70;;;;;;;14.37;65.16;102305.25;5026348;28;20049;-48
2022/06/14 01:15:15;;;;;;;11.57;3.85;;;;;;;14.45;64.69;102315.75;5022604;28;20045;-47
2022/06/14 01:18:10;;;;;;;11.77;3.47;;;;;;;14.48;64.77;102307.03;5024425;28;20045;-49
2022/06/14 01:20:57;;;;;;;11.35;3.38;;;;;;;14.49;64.86;102307.84;5030303;28;20064;-49
2022/06/14 01:23:45;;;;;;;11.75;3.40;;;;;;;14.49;64.76;102296.88;5031697;28;20064;-46
2022/06/14 01:26:34;;;;;;;9.80;3.05;;;;;;;14.48;64.90;102296.06;5018182;28;20362;-49
2022/06/14 01:29:23;;;;;;;12.95;3.45;;;;;;;14.45;65.02;102293.81;5022571;28;20042;-48
2022/06/14 01:32:13;;;;;;;14.75;3.47;;;;;;;14.42;65.08;102299.81;5025850;28;20050;-49
2022/06/14 01:35:05;;;;;;;10.88;3.78;;;;;;;14.38;65.50;102298.69;5031181;28;20048;-48
2022/06/14 01:37:55;;;;;;;8.93;3.40;;;;;;;14.37;65.59;102297.00;5024441;28;20042;-48
2022/06/14 01:40:44;;;;;;;9.05;3.20;;;;;;;14.38;65.38;102295.94;5025416;28;20100;-48
2022/06/14 01:43:51;;;;;;;13.65;3.42;;;;;;;14.36;65.53;102283.56;5033646;28;20053;-47
2022/06/14 01:47:17;;;;;;;10.70;3.35;;;;;;;14.32;65.83;102290.66;5031528;28;20096;-49
2022/06/14 01:53:39;;;;;;;14.18;3.53;;;;;;;14.36;65.79;102286.28;5027532;28;20171;-48
2022/06/14 01:56:35;;;;;;;10.30;3.15;;;;;;;14.36;65.60;102286.28;5029751;28;20064;-48
2022/06/14 01:59:46;;;;;;;8.65;3.10;;;;;;;14.36;65.79;102289.88;5019599;28;20048;-44
2022/06/14 02:02:42;;;;;;;12.48;3.70;;;;;;;14.37;65.67;102280.56;5016577;28;20042;-48
2022/06/14 02:05:32;;;;;;;9.68;3.20;;;;;;;14.35;65.82;102276.44;5024612;28;20046;-53
2022/06/14 02:08:23;;;;;;;10.20;3.40;;;;;;;14.34;65.73;102272.88;5029446;28;20044;-52
2022/06/14 02:11:15;;;;;;;11.90;3.40;;;;;;;14.34;66.07;102272.88;5030979;28;20092;-51
2022/06/14 02:14:22;;;;;;;10.18;3.72;;;;;;;14.34;65.84;102277.53;5031038;28;20049;-54
2022/06/14 02:17:15;;;;;;;11.13;3.30;;;;;;;14.32;65.93;102280.50;5012744;28;20056;-50
2022/06/14 02:20:07;;;;;;;9.50;3.55;;;;;;;14.27;65.93;102283.19;5020062;28;20053;-50
2022/06/14 02:23:08;;;;;;;9.40;3.40;;;;;;;14.15;66.67;102275.13;5016468;28;20154;-52
2022/06/14 02:26:16;;;;;;;7.70;3.03;;;;;;;14.07;66.95;102275.59;5021256;28;20065;-49
2022/06/14 02:29:30;;;;;;;10.77;3.33;;;;;;;13.96;67.46;102260.91;5030441;28;20048;-52
2022/06/14 02:32:49;;;;;;;14.52;3.30;;;;;;;13.81;68.02;102274.44;5032669;28;20068;-53
2022/06/14 02:35:44;;;;;;;9.02;3.30;;;;;;;13.83;68.51;102277.75;5026812;28;20492;-50
2022/06/14 02:38:45;;;;;;;10.95;3.60;;;;;;;13.88;68.32;102272.34;5030058;28;20049;-50
2022/06/14 02:42:05;;;;;;;11.15;3.40;;;;;;;13.88;68.19;102258.63;5033997;28;20046;-49
2022/06/14 02:45:04;;;;;;;10.70;3.35;;;;;;;13.78;68.52;102258.47;5034276;28;20103;-49
2022/06/14 02:47:58;;;;;;;13.48;3.50;;;;;;;13.70;68.45;102262.50;5027135;28;20053;-50
2022/06/14 02:50:52;;;;;;;12.82;3.40;;;;;;;13.69;68.72;102255.38;5022592;28;20042;-51
2022/06/14 02:53:59;;;;;;;11.10;3.75;;;;;;;13.62;68.60;102266.50;5030141;28;20057;-48
2022/06/14 02:56:50;;;;;;;12.70;3.40;;;;;;;13.50;69.69;102263.06;5026162;28;20061;-52
2022/06/14 02:59:45;;;;;;;11.75;3.67;;;;;;;13.50;69.95;102257.56;5024085;28;20056;-51
2022/06/14 03:02:39;;;;;;;9.07;3.60;;;;;;;13.45;69.25;102260.25;5018621;28;20056;-48
2022/06/14 03:05:44;;;;;;;9.57;3.13;;;;;;;13.47;70.52;102263.56;5025481;28;20320;-52
2022/06/14 03:09:03;;;;;;;9.43;3.10;;;;;;;13.66;71.10;102263.25;5038619;28;20492;-53
2022/06/14 03:11:58;;;;;;;12.48;4.10;;;;;;;13.74;69.28;102262.81;5017821;28;20046;-48
2022/06/14 03:15:00;;;;;;;12.70;3.73;;;;;;;13.62;69.34;102261.03;5031234;28;20041;-48
2022/06/14 03:18:20;;;;;;;13.20;3.50;;;;;;;13.58;69.53;102265.34;5024901;28;20042;-48
2022/06/14 03:21:19;;;;;;;9.68;3.35;;;;;;;13.56;69.49;102262.03;5023978;28;20062;-47
2022/06/14 03:24:19;;;;;;;10.45;3.75;;;;;;;13.59;69.39;102256.06;5018474;28;20112;-47
2022/06/14 03:27:10;;;;;;;10.30;3.90;;;;;;;13.51;69.49;102261.13;5030719;28;20530;-48
2022/06/14 03:30:09;;;;;;;8.88;3.20;;;;;;;13.42;69.98;102267.06;5028976;28;20053;-50
2022/06/14 03:33:07;;;;;;;14.63;4.15;;;;;;;13.44;69.69;102258.56;5029153;28;20054;-50
2022/06/14 03:35:55;;;;;;;12.10;4.63;;;;;;;13.40;69.63;102263.75;5024285;28;20054;-48
2022/06/14 03:38:45;;;;;;;11.93;4.28;;;;;;;13.28;70.72;102262.19;5035757;28;20048;-49
2022/06/14 03:41:34;;;;;;;11.27;3.95;;;;;;;13.27;70.91;102261.34;5033362;28;20053;-50
2022/06/14 03:44:25;;;;;;;14.68;4.32;;;;;;;13.27;70.75;102261.34;5024552;28;20400;-50
2022/06/14 03:47:23;;;;;;;11.90;3.70;;;;;;;13.27;70.99;102268.69;5032626;28;20049;-48
2022/06/14 03:50:14;;;;;;;11.50;4.00;;;;;;;13.24;70.71;102263.72;5033292;28;20057;-48
2022/06/14 03:53:39;;;;;;;13.73;4.03;;;;;;;13.19;70.79;102262.56;5020864;28;20046;-46
2022/06/14 03:56:44;;;;;;;11.88;3.90;;;;;;;13.16;71.12;102267.72;5016386;28;20046;-48
2022/06/14 03:59:34;;;;;;;10.02;3.80;;;;;;;13.20;71.25;102253.28;5021271;28;20050;-50
2022/06/14 04:05:57;;;;;;;10.80;3.70;;;;;;;13.22;71.08;102264.78;5025965;28;20489;-49
2022/06/14 04:08:47;;;;;;;11.85;3.75;;;;;;;13.31;70.92;102265.22;5014076;28;20316;-48
2022/06/14 04:11:46;;;;;;;13.10;4.28;;;;;;;13.36;70.53;102265.31;5023605;28;20519;-47
2022/06/14 04:14:40;;;;;;;10.48;3.78;;;;;;;13.39;70.50;102269.44;5018932;28;20049;-46
2022/06/14 04:17:48;;;;;;;9.70;3.30;;;;;;;13.43;70.46;102262.41;5007705;28;20061;-47
2022/06/14 04:20:40;;;;;;;13.50;4.32;;;;;;;13.49;71.04;102266.84;5020224;28;20054;-50
2022/06/14 04:23:51;;;;;;;14.52;4.32;;;;;;;13.55;70.59;102270.50;5006561;28;20053;-50
2022/06/14 04:26:49;;;;;;;7.60;3.40;;;;;;;13.54;70.62;102280.66;5024029;28;20077;-48
2022/06/14 04:30:03;;;;;;;10.18;4.10;;;;;;;13.59;70.56;102282.63;5027675;28;20057;-46
2022/06/14 04:32:56;;;;;;;13.02;3.80;;;;;;;13.59;70.62;102288.09;5030041;28;20133;-49
2022/06/14 04:35:34;;;;;;;11.15;3.85;;;;;;;13.63;70.71;102278.28;5008594;28;20053;-49
2022/06/14 04:38:42;;;;;;;11.43;4.20;;;;;;;13.67;70.39;102278.63;5017126;28;20045;-44
2022/06/14 04:41:33;;;;;;;13.70;4.38;;;;;;;13.68;70.96;102285.75;5027737;28;20042;-46
2022/06/14 04:44:47;;;;;;;14.63;4.85;;;;;;;13.69;71.06;102276.47;5026882;28;20042;-48
2022/06/14 04:47:44;;;;;;;13.13;4.60;;;;;;;13.70;71.74;102284.41;5018917;28;20050;-49
2022/06/14 04:50:42;;;;;;;12.65;4.70;;;;;;;13.67;71.95;102281.34;5025511;28;20503;-48
2022/06/14 04:53:35;;;;;;;13.63;4.47;;;;;;;13.64;72.14;102280.78;5034137;28;20435;-47
2022/06/14 04:56:31;;;;;;;12.40;4.57;;;;;;;13.62;72.61;102288.41;5014175;28;20146;-48
2022/06/14 04:59:51;;;;;;;13.35;4.32;;;;;;;13.63;72.23;102287.31;5026765;28;20045;-48
2022/06/14 05:02:49;;;;;;;12.25;4.38;;;;;;;13.64;72.52;102282.69;5033131;28;20046;-49
2022/06/14 05:05:53;;;;;;;13.75;4.22;;;;;;;13.64;72.83;102283.53;5025204;28;20052;-48
2022/06/14 05:09:09;;;;;;;11.23;3.85;;;;;;;13.63;72.89;102275.53;5031199;28;20492;-50
2022/06/14 05:12:15;;;;;;;7.65;3.20;;;;;;;13.70;72.92;102275.38;5027596;28;20100;-51
2022/06/14 05:15:36;;;;;;;9.27;3.40;;;;;;;13.79;72.65;102279.34;5028581;28;20056;-52
2022/06/14 05:18:48;;;;;;;8.95;3.53;;;;;;;13.85;72.45;102286.50;5026628;28;20132;-53
2022/06/14 05:21:50;;;;;;;10.57;4.32;;;;;;;13.89;72.84;102292.34;5022366;28;20057;-51
2022/06/14 05:24:38;;;;;;;12.10;4.28;;;;;;;13.90;73.05;102300.28;5026743;28;20049;-52
2022/06/14 05:27:32;;;;;;;9.90;3.83;;;;;;;13.93;72.42;102293.50;4325708;28;10000797;-53
2022/06/14 05:30:35;;;;;;;15.35;4.30;;;;;;;13.87;72.40;102298.06;5025446;28;20052;-50
2022/06/14 05:33:41;;;;;;;12.85;4.30;;;;;;;13.90;71.72;102302.19;5028879;28;20551;-52
2022/06/14 05:36:37;;;;;;;13.60;4.05;;;;;;;13.90;71.87;102303.03;5024010;28;20049;-50
2022/06/14 05:39:51;;;;;;;16.15;4.10;;;;;;;13.95;71.17;102297.63;5017305;28;20048;-49
2022/06/14 05:43:22;;;;;;;10.45;3.38;;;;;;;14.00;71.29;102300.44;5019254;28;20056;-46
2022/06/14 05:46:07;;;;;;;13.13;3.50;;;;;;;14.02;71.04;102301.00;5022826;28;20062;-51
2022/06/14 05:48:59;;;;;;;12.18;3.80;;;;;;;13.94;70.55;102293.22;5024268;28;20765;-49
2022/06/14 05:52:14;;;;;;;9.80;3.45;;;;;;;13.97;70.45;102300.91;5008709;28;20050;-51
2022/06/14 05:55:12;;;;;;;;;;;;;;;14.02;70.29;102300.16;5022340;28;20048;-51
2022/06/14 05:58:11;;;;;;;8.40;3.08;;;;;;;14.01;70.29;102299.34;5023867;28;19925;-51
2022/06/14 06:01:09;;;;;;;14.10;4.32;;;;;;;13.93;69.53;102309.94;5015930;28;20045;-51
2022/06/14 06:04:12;;;;;;;9.85;2.97;;;;;;;13.96;70.09;102307.50;5013968;28;20053;-48
2022/06/14 06:07:05;;;;;;;13.77;3.25;;;;;;;14.12;69.29;102305.78;5014868;28;20058;-45
2022/06/14 06:10:19;;;;;;;7.47;2.58;;;;;;;14.14;68.46;102302.78;5020595;28;20049;-45
2022/06/14 06:13:30;;;;;;;7.70;2.92;;;;;;;14.18;68.17;102312.16;5016738;28;20052;-52
2022/06/14 06:16:31;;;;;;;9.93;3.22;;;;;;;14.24;67.04;102309.22;5010446;28;20504;-48
2022/06/14 06:19:45;;;;;;;8.82;2.83;;;;;;;14.33;66.32;102309.56;5015348;28;20108;-50
2022/06/14 06:22:45;;;;;;;13.95;2.70;;;;;;;14.35;65.62;102312.06;5022393;28;20053;-50
2022/06/14 06:25:37;;;;;;;12.25;3.38;;;;;;;14.32;65.47;102309.84;5019835;28;20049;-50
2022/06/14 06:28:25;;;;;;;12.05;3.00;;;;;;;14.32;65.70;102307.94;5010342;28;20049;-45
2022/06/14 06:31:23;;;;;;;13.48;3.22;;;;;;;14.31;65.45;102309.03;5025954;28;20053;-54
2022/06/14 06:34:13;;;;;;;10.38;3.20;;;;;;;14.32;64.33;102302.44;5013878;28;20464;-48
2022/06/14 06:37:14;;;;;;;11.48;2.53;;;;;;;14.30;64.08;102299.13;5017020;28;20148;-50
2022/06/14 06:40:13;;;;;;;9.25;2.65;;;;;;;14.33;64.55;102300.53;5021700;28;20053;-52
2022/06/14 06:43:07;;;;;;;10.32;3.28;;;;;;;14.33;64.12;102309.56;5015377;28;20057;-49
2022/06/14 06:45:55;;;;;;;8.50;2.38;;;;;;;14.44;63.81;102319.59;5012538;28;20046;-50
2022/06/14 06:48:48;;;;;;;8.45;2.42;;;;;;;14.46;62.85;102314.69;5012060;28;20049;-51
2022/06/14 06:51:30;;;;;;;10.75;2.97;;;;;;;14.44;63.51;102316.03;5018948;28;20058;-49
2022/06/14 06:54:25;;;;;;;10.00;2.80;;;;;;;14.37;62.95;102313.47;5019876;28;20151;-49
2022/06/14 06:57:16;;;;;;;10.20;3.47;;;;;;;14.33;63.46;102315.06;5016055;28;20057;-49
2022/06/14 07:00:14;;;;;;;10.65;3.03;;;;;;;14.40;63.14;102323.91;5021640;28;20415;-49
2022/06/14 07:03:10;;;;;;;9.20;2.90;;;;;;;14.48;62.64;102317.16;5013171;28;20424;-52
2022/06/14 07:06:01;;;;;;;8.98;3.30;;;;;;;14.54;62.53;102315.34;5015901;28;20061;-50
2022/06/14 07:08:55;;;;;;;10.75;2.83;;;;;;;14.61;61.09;102310.47;5014020;28;20058;-49
2022/06/14 07:11:56;;;;;;;7.88;2.75;;;;;;;14.68;60.27;102313.84;5015015;28;20108;-49
2022/06/14 07:15:16;;;;;;;6.05;2.42;;;;;;;14.68;60.36;102308.34;5008351;28;20072;-51
2022/06/14 07:18:17;;;;;;;10.18;2.88;;;;;;;14.73;60.66;102313.88;5026057;28;20057;-50
2022/06/14 07:21:13;;;;;;;9.80;3.00;;;;;;;14.74;59.73;102312.78;5030542;28;20065;-48
2022/06/14 07:24:13;;;;;;;9.70;2.72;;;;;;;14.77;58.80;102312.28;5025594;28;20389;-49
2022/06/14 07:27:08;;;;;;;11.82;2.80;;;;;;;14.76;58.69;102309.78;5024243;28;20413;-52
2022/06/14 07:29:58;;;;;;;8.45;2.80;;;;;;;14.77;58.38;102315.03;5014764;28;20057;-51
2022/06/14 07:32:53;;;;;;;7.78;2.75;;;;;;;14.78;59.04;102310.38;5013940;28;20409;-49
2022/06/14 07:35:47;;;;;;;7.43;2.47;;;;;;;14.82;57.28;102315.06;5013213;28;20046;-50
2022/06/14 07:38:57;;;;;;;7.35;2.35;;;;;;;14.83;57.83;102305.75;5017074;28;20045;-48
2022/06/14 07:41:57;;;;;;;9.02;2.47;;;;;;;14.95;58.77;102304.75;5027428;28;20038;-51
2022/06/14 07:44:51;;;;;;;8.70;2.55;;;;;;;15.05;57.20;102311.16;5026777;28;20060;-45
2022/06/14 07:47:43;;;;;;;8.57;3.00;;;;;;;14.97;56.90;102303.41;5023637;28;20038;-48
2022/06/14 07:50:46;;;;;;;9.23;2.97;;;;;;;14.93;57.07;102312.41;5018996;28;20052;-50
2022/06/14 07:53:41;;;;;;;12.70;3.97;;;;;;;15.12;62.95;102313.69;5026689;28;20049;-50
2022/06/14 07:56:36;;;;;;;9.00;2.90;;;;;;;15.18;58.28;102303.59;5027332;28;20053;-48
2022/06/14 07:59:33;;;;;;;7.72;2.80;;;;;;;15.12;56.78;102309.00;5008928;28;20149;-48
2022/06/14 08:02:29;;;;;;;10.13;2.75;;;;;;;15.15;58.15;102310.41;5020958;28;20053;-51
2022/06/14 08:05:21;;;;;;;12.70;3.45;;;;;;;15.27;59.68;102302.84;5019404;28;20388;-48
2022/06/14 08:08:11;;;;;;;10.43;2.75;;;;;;;15.27;56.83;102304.72;5030941;28;20053;-48
2022/06/14 08:11:06;;;;;;;9.13;2.80;;;;;;;15.31;58.21;102303.94;5025936;28;20046;-50
2022/06/14 08:13:58;;;;;;;7.97;2.80;;;;;;;15.30;55.45;102309.72;5019837;28;20057;-50
2022/06/14 08:16:48;;;;;;;6.30;2.65;;;;;;;15.28;55.30;102304.47;5020116;28;20104;-48
2022/06/14 08:19:42;;;;;;;12.80;3.80;;;;;;;15.40;57.16;102300.72;5017725;28;20510;-52
2022/06/14 08:22:42;;;;;;;8.13;2.60;;;;;;;15.45;57.02;102298.81;5022475;28;20053;-49
2022/06/14 08:25:32;;;;;;;7.43;2.55;;;;;;;15.40;55.19;102295.22;5013888;28;20416;-50
2022/06/14 08:28:22;;;;;;;11.50;3.60;;;;;;;15.67;60.19;102293.19;5018544;28;20064;-49
2022/06/14 08:31:20;;;;;;;8.57;3.17;;;;;;;15.65;56.76;102291.78;5031060;28;20053;-50
2022/06/14 08:34:17;;;;;;;8.68;2.90;;;;;;;15.60;55.33;102295.34;5029203;28;20088;-49
2022/06/14 08:37:15;;;;;;;8.35;2.80;;;;;;;15.64;55.82;102284.66;5029531;28;20057;-52
2022/06/14 08:40:24;;;;;;;8.85;2.97;;;;;;;15.73;57.09;102281.16;5031336;28;20064;-52
2022/06/14 08:43:16;;;;;;;6.90;2.80;;;;;;;15.75;54.92;102292.72;5024319;28;20057;-52
2022/06/14 08:46:26;;;;;;;11.85;2.90;;;;;;;15.71;55.14;102286.09;5019367;28;20124;-50
2022/06/14 08:49:34;;;;;;;8.00;2.88;;;;;;;15.81;56.81;102279.00;5027943;28;20055;-50
2022/06/14 08:52:45;;;;;;;8.98;2.80;;;;;;;15.86;56.08;102279.03;5029085;28;20042;-55
2022/06/14 08:55:52;;;;;;;9.70;2.80;;;;;;;15.94;56.72;102278.50;5034047;28;20052;-52
2022/06/14 08:58:45;;;;;;;8.50;2.85;;;;;;;16.07;56.20;102285.44;5034233;28;20049;-54
2022/06/14 09:02:05;;;;;;;11.43;3.35;;;;;;;16.21;56.31;102272.00;5034248;28;20045;-49
2022/06/14 09:05:05;;;;;;;8.38;2.50;;;;;;;16.19;54.57;102281.34;5027835;28;20507;-49
2022/06/14 09:08:26;;;;;;;6.68;2.50;;;;;;;16.21;53.47;102281.09;5031763;28;20041;-50
2022/06/14 09:11:36;;;;;;;10.63;2.63;;;;;;;16.22;53.14;102279.16;5021332;28;20072;-49
2022/06/14 09:14:32;;;;;;;17.85;5.40;;;;;;;16.29;55.94;102268.72;5030987;28;20404;-50
2022/06/14 09:17:56;;;;;;;10.20;3.83;;;;;;;16.28;54.84;102269.81;5012698;28;20061;-48
2022/06/14 09:21:16;;;;;;;7.47;2.60;;;;;;;16.15;53.03;102274.72;5027223;28;20507;-52
2022/06/14 09:24:37;;;;;;;7.10;2.47;;;;;;;16.14;53.72;102275.84;5017336;28;20550;-48
2022/06/14 09:27:49;;;;;;;8.23;2.95;;;;;;;16.28;53.48;102262.38;5033455;28;20519;-51
2022/06/14 09:31:14;;;;;;;12.80;3.38;;;;;;;16.47;53.41;102273.72;5024984;28;20175;-49
2022/06/14 09:34:41;;;;;;;8.63;2.78;;;;;;;16.51;51.32;102274.81;5029760;28;20080;-50
2022/06/14 09:37:47;;;;;;;8.18;3.10;;;;;;;16.57;52.43;102270.16;5018663;28;20045;-51
2022/06/14 09:40:23;;;;;;;12.60;4.43;;;;;;;16.68;52.67;102271.81;5016923;28;20054;-51
2022/06/14 09:43:20;;;;;;;8.93;3.33;;;;;;;16.75;50.81;102277.88;5026662;28;20046;-50
2022/06/14 09:46:28;;;;;;;21.85;5.75;;;;;;;16.86;55.15;102264.16;5032895;28;20049;-50
2022/06/14 09:49:50;;;;;;;12.00;3.85;;;;;;;16.96;52.87;102264.16;5024371;28;20496;-50
2022/06/14 09:53:06;;;;;;;8.93;3.30;;;;;;;16.88;51.89;102254.50;5023524;28;20487;-45
2022/06/14 09:56:24;;;;;;;14.27;4.78;;;;;;;16.92;52.89;102244.59;5025767;28;20045;-50
2022/06/14 09:59:48;;;;;;;16.20;4.88;;;;;;;17.02;54.54;102252.03;5021002;28;20041;-54
2022/06/14 10:02:38;;;;;;;7.38;2.80;;;;;;;17.04;53.48;102245.16;5024712;28;20400;-50
2022/06/14 10:05:42;;;;;;;10.43;3.08;;;;;;;17.08;51.98;102242.69;5015719;28;20568;-51
2022/06/14 10:08:29;;;;;;;10.98;3.50;;;;;;;17.00;51.82;102240.47;5028188;28;20048;-49
2022/06/14 10:11:26;;;;;;;11.57;3.55;;;;;;;16.91;52.33;102240.22;5029863;28;20046;-50
2022/06/14 10:14:18;;;;;;;10.38;3.13;;;;;;;16.91;51.90;102240.22;4322557;28;10000439;-47
2022/06/14 10:17:06;;;;;;;8.77;3.20;;;;;;;16.89;51.97;102239.66;5023595;28;20087;-48
2022/06/14 10:20:21;;;;;;;7.30;2.90;;;;;;;16.90;50.78;102226.72;5029542;28;20065;-52
2022/06/14 10:23:11;;;;;;;;;;;;;;;16.91;50.53;102220.94;5023210;28;20034;-49
2022/06/14 10:29:26;;;;;;;8.02;3.08;;;;;;;16.99;50.64;102225.88;5028916;28;20511;-48
2022/06/14 10:32:59;;;;;;;9.40;3.03;;;;;;;17.06;52.65;102222.84;5013200;28;20049;-47
2022/06/14 10:35:49;;;;;;;13.52;3.67;;;;;;;17.10;50.61;102223.94;5026930;28;20515;-48
2022/06/14 10:39:01;;;;;;;9.90;3.03;;;;;;;17.10;50.11;102223.09;5019356;28;20050;-47
2022/06/14 10:42:10;;;;;;;8.10;2.92;;;;;;;17.07;50.11;102215.41;5023500;28;20188;-49
2022/06/14 10:45:11;;;;;;;10.82;3.30;;;;;;;17.07;49.71;102210.72;5021723;28;20060;-50
2022/06/14 10:48:09;;;;;;;10.00;3.53;;;;;;;17.14;50.87;102205.75;5018811;28;20551;-48
2022/06/14 10:50:59;;;;;;;8.80;2.60;;;;;;;17.20;49.35;102196.38;5026372;28;20046;-49
2022/06/14 10:54:08;;;;;;;8.40;2.83;;;;;;;17.19;48.26;102193.91;5029824;28;20053;-48
2022/06/14 10:57:00;;;;;;;8.45;3.15;;;;;;;17.12;48.57;102196.13;5032831;28;20064;-49
2022/06/14 11:00:19;;;;;;;9.88;2.97;;;;;;;17.15;49.49;102198.31;5024278;28;20050;-47
2022/06/14 11:03:38;;;;;;;11.48;3.47;;;;;;;17.14;49.96;102185.66;5013067;28;20501;-45
2022/06/14 11:06:44;;;;;;;10.70;3.88;;;;;;;17.14;48.99;102180.13;5021407;28;20411;-48
2022/06/14 11:10:07;;;;;;;10.52;2.97;;;;;;;17.22;49.51;102174.03;5032943;28;20731;-50
2022/06/14 11:13:20;;;;;;;12.23;2.90;;;;;;;17.29;48.38;102171.81;5021095;28;20512;-49
2022/06/14 11:16:12;;;;;;;11.95;3.38;;;;;;;17.40;50.08;102175.38;5026753;28;20053;-49
2022/06/14 11:19:35;;;;;;;10.32;2.92;;;;;;;17.53;49.59;102176.69;5025535;28;20488;-49
2022/06/14 11:22:39;;;;;;;7.93;3.00;;;;;;;17.59;50.22;102159.06;5013256;28;20052;-49
2022/06/14 11:25:26;;;;;;;9.38;3.15;;;;;;;17.72;49.59;102163.94;5033658;28;20072;-48
2022/06/14 11:28:29;;;;;;;10.93;3.50;;;;;;;17.73;47.80;102160.09;5031992;28;20523;-48
2022/06/14 11:31:42;;;;;;;9.10;2.83;;;;;;;17.68;48.80;102151.84;5021521;28;20058;-48
2022/06/14 11:35:03;;;;;;;8.18;2.90;;;;;;;17.68;49.44;102154.59;5032839;28;20049;-50
2022/06/14 11:38:12;;;;;;;6.53;2.90;;;;;;;17.76;50.45;102151.25;5032026;28;20049;-49
2022/06/14 11:41:05;;;;;;;8.68;3.38;;;;;;;17.84;49.16;102156.16;5028965;28;20431;-49
2022/06/14 11:44:09;;;;;;;12.45;3.60;;;;;;;17.90;48.86;102145.97;5020749;28;20041;-50
2022/06/14 11:47:05;;;;;;;10.13;3.10;;;;;;;17.92;48.74;102146.50;5027613;28;20050;-49
2022/06/14 11:50:17;;;;;;;8.32;2.75;;;;;;;17.94;48.87;102143.44;5030976;28;20057;-48
2022/06/14 11:53:07;;;;;;;11.15;2.70;;;;;;;18.05;49.29;102139.50;5027104;28;20132;-52
2022/06/14 11:56:05;;;;;;;9.98;3.22;;;;;;;18.08;47.70;102144.44;5032144;28;20049;-51
2022/06/14 11:59:03;;;;;;;6.88;3.00;;;;;;;18.07;48.40;102143.63;5032542;28;20049;-50
2022/06/14 12:01:53;;;;;;;7.38;2.88;;;;;;;18.09;47.43;102137.84;5023199;28;20058;-47
2022/06/14 12:04:52;;;;;;;11.02;3.20;;;;;;;18.09;48.73;102133.13;5021002;28;20038;-48
2022/06/14 12:07:41;;;;;;;9.27;3.47;;;;;;;18.06;47.49;102125.44;5028098;28;20049;-50
2022/06/14 12:10:50;;;;;;;9.30;2.90;;;;;;;18.06;48.12;102124.59;5030495;28;20484;-46
2022/06/14 12:13:38;;;;;;;9.07;3.20;;;;;;;18.15;51.62;102128.41;5029827;28;20419;-50
2022/06/14 12:16:36;;;;;;;10.68;2.92;;;;;;;18.18;48.85;102127.81;5022092;28;20057;-53
2022/06/14 12:19:33;;;;;;;9.00;2.88;;;;;;;18.20;48.12;102130.28;5022232;28;20125;-48
2022/06/14 12:22:34;;;;;;;8.73;3.05;;;;;;;18.25;49.07;102130.25;5007961;28;20045;-51
2022/06/14 12:29:02;;;;;;;7.55;2.50;;;;;;;18.43;47.95;102125.97;5026388;28;20057;-48
2022/06/14 12:32:02;;;;;;;8.20;2.80;;;;;;;18.51;47.14;102120.66;5025901;28;20072;-49
2022/06/14 12:35:02;;;;;;;9.95;2.78;;;;;;;18.52;46.83;102116.78;5025287;28;20056;-51
2022/06/14 12:37:54;;;;;;;8.00;2.67;;;;;;;18.58;46.94;102114.78;5034726;28;20048;-50
2022/06/14 12:41:05;;;;;;;6.50;2.55;;;;;;;18.64;47.18;102112.78;5035329;28;20128;-48
2022/06/14 12:44:02;;;;;;;8.43;3.15;;;;;;;18.64;46.36;102107.28;5020640;28;20046;-47
2022/06/14 12:46:51;;;;;;;9.38;3.08;;;;;;;18.60;46.25;102104.28;5033968;28;20041;-51
2022/06/14 12:49:43;;;;;;;11.82;2.97;;;;;;;18.58;46.48;102101.00;5026912;28;20046;-49
2022/06/14 12:52:37;;;;;;;9.50;3.13;;;;;;;18.65;47.77;102104.22;5029014;28;20492;-50
2022/06/14 12:55:37;;;;;;;8.52;2.90;;;;;;;18.70;46.16;102106.94;5030071;28;20038;-50
2022/06/14 12:58:24;;;;;;;12.27;3.28;;;;;;;18.73;46.10;102094.50;5026736;28;20050;-50
2022/06/14 13:01:32;;;;;;;10.73;3.50;;;;;;;18.83;50.32;102105.47;5021762;28;20054;-49
2022/06/14 13:04:15;;;;;;;10.05;3.17;;;;;;;18.84;46.50;102092.50;5031541;28;20523;-49
2022/06/14 13:07:51;;;;;;;9.15;3.13;;;;;;;18.81;45.49;102091.13;5024785;28;20050;-51
2022/06/14 13:10:44;;;;;;;7.63;2.80;;;;;;;18.86;44.27;102095.78;5021718;28;20049;-51
2022/06/14 13:13:35;;;;;;;6.82;2.70;;;;;;;18.85;44.19;102080.31;5026236;28;20046;-45
2022/06/14 13:16:53;;;;;;;10.48;2.95;;;;;;;18.80;45.69;102085.91;5018070;28;20041;-49
2022/06/14 13:19:47;;;;;;;7.95;2.45;;;;;;;18.77;46.04;102072.69;5032992;28;20124;-48
2022/06/14 13:22:34;;;;;;;7.93;2.40;;;;;;;18.91;45.46;102079.16;5025048;28;20050;-50
2022/06/14 13:25:44;;;;;;;10.32;3.17;;;;;;;18.89;46.02;102068.38;5030816;28;20060;-48
2022/06/14 13:28:58;;;;;;;7.07;2.80;;;;;;;18.95;45.64;102074.66;5033410;28;20492;-50
2022/06/14 13:31:55;;;;;;;13.10;3.58;;;;;;;18.90;45.46;102067.25;5026756;28;20045;-50
2022/06/14 13:35:07;;;;;;;10.68;3.22;;;;;;;18.98;45.79;102065.81;5033410;28;20042;-50
2022/06/14 13:38:00;;;;;;;8.15;2.92;;;;;;;19.02;45.27;102058.56;5031251;28;20056;-47
2022/06/14 13:41:09;;;;;;;9.60;2.97;;;;;;;19.03;44.58;102060.22;5031012;28;20045;-51
2022/06/14 13:44:15;;;;;;;7.72;2.90;;;;;;;19.01;46.21;102054.16;5027577;28;20041;-52
2022/06/14 13:47:15;;;;;;;13.30;2.85;;;;;;;19.05;45.56;102046.94;5024846;28;20050;-50
2022/06/14 13:50:07;;;;;;;6.00;2.78;;;;;;;19.16;46.11;102053.97;5030900;28;20045;-48
2022/06/14 13:53:01;;;;;;;9.32;2.92;;;;;;;19.25;45.52;102050.56;5033215;28;20052;-49
2022/06/14 13:56:04;;;;;;;8.77;3.13;;;;;;;19.25;44.62;102045.03;5032769;28;20463;-49
2022/06/14 13:59:05;;;;;;;5.30;2.47;;;;;;;19.28;46.25;102058.25;5016359;28;20056;-48
2022/06/14 14:02:05;;;;;;;8.60;2.95;;;;;;;19.25;47.28;102050.56;5032438;28;20439;-48
2022/06/14 14:05:05;;;;;;;7.63;2.80;;;;;;;19.20;44.74;102042.34;5023134;28;20042;-48